Time,TemperatureF,DewpointF,PressureIn,WindDirection,WindDirectionDegrees,WindSpeedMPH,WindSpeedGustMPH,Humidity,HourlyPrecipIn,Conditions,Clouds,dailyrainin,SoftwareType,DateUTC
2013-06-30 00:02:00,64.0,63.1,29.49,West,270,1.0,2.0,97,0.00,,,0.07,meteohub,2013-06-30 04:02:00,
2013-06-30 00:06:00,64.0,63.1,29.49,South,180,2.0,2.0,97,0.00,,,0.00,meteohub,2013-06-30 04:06:00,
2013-06-30 00:10:00,64.0,63.1,29.49,South,180,1.0,2.0,97,0.00,,,0.00,meteohub,2013-06-30 04:10:00,
2013-06-30 00:16:00,64.0,63.1,29.49,SE,135,1.0,2.0,97,0.00,,,0.00,meteohub,2013-06-30 04:16:00,
2013-06-30 00:22:00,64.0,63.1,29.49,SE,135,1.0,2.0,97,0.00,,,0.00,meteohub,2013-06-30 04:22:00,
2013-06-30 00:27:00,64.0,63.1,29.48,SE,135,2.0,2.0,97,0.00,,,0.00,meteohub,2013-06-30 04:27:00,
2013-06-30 00:32:00,63.9,63.0,29.48,SE,135,2.0,2.0,97,0.00,,,0.00,meteohub,2013-06-30 04:32:00,
2013-06-30 00:37:00,63.9,63.0,29.49,NW,315,2.0,2.0,97,0.00,,,0.00,meteohub,2013-06-30 04:37:00,
2013-06-30 00:42:00,63.9,63.0,29.49,West,270,2.0,2.0,97,0.00,,,0.00,meteohub,2013-06-30 04:42:00,
2013-06-30 00:47:00,63.9,63.0,29.48,SE,135,0.0,2.0,97,0.00,,,0.00,meteohub,2013-06-30 04:47:00,
2013-06-30 00:52:00,63.9,63.0,29.49,NW,315,1.0,2.0,97,0.00,,,0.00,meteohub,2013-06-30 04:52:00,
2013-06-30 00:57:00,63.9,63.0,29.49,NW,315,1.0,2.0,97,0.00,,,0.00,meteohub,2013-06-30 04:57:00,
2013-06-30 01:02:00,64.0,63.1,29.48,East,90,1.0,2.0,97,0.00,,,0.00,meteohub,2013-06-30 05:02:00,
2013-06-30 01:07:00,63.9,63.0,29.48,SE,135,1.0,2.0,97,0.00,,,0.00,meteohub,2013-06-30 05:07:00,
2013-06-30 01:12:00,63.9,63.0,29.49,SE,135,0.0,2.0,97,0.00,,,0.00,meteohub,2013-06-30 05:12:00,
2013-06-30 01:17:00,63.7,62.8,29.49,NW,315,0.0,2.0,97,0.00,,,0.00,meteohub,2013-06-30 05:17:00,
2013-06-30 01:22:00,63.7,62.8,29.49,SW,225,0.0,2.0,97,0.00,,,0.00,meteohub,2013-06-30 05:22:00,
2013-06-30 01:27:00,63.7,62.8,29.49,West,270,1.0,2.0,97,0.00,,,0.00,meteohub,2013-06-30 05:27:00,
2013-06-30 01:32:00,63.7,62.8,29.48,SW,225,1.0,2.0,97,0.00,,,0.00,meteohub,2013-06-30 05:32:00,
2013-06-30 01:37:00,63.7,62.8,29.48,NW,315,2.0,2.0,97,0.00,,,0.00,meteohub,2013-06-30 05:37:00,
2013-06-30 01:42:00,63.7,62.8,29.48,North,0,1.0,2.0,97,0.00,,,0.00,meteohub,2013-06-30 05:42:00,
2013-06-30 01:47:00,63.9,63.0,29.48,West,270,1.0,2.0,97,0.00,,,0.00,meteohub,2013-06-30 05:47:00,
2013-06-30 01:52:00,63.7,62.8,29.48,West,270,2.0,2.0,97,0.00,,,0.00,meteohub,2013-06-30 05:52:00,
2013-06-30 01:57:00,63.7,62.8,29.49,South,180,0.0,2.0,97,0.00,,,0.00,meteohub,2013-06-30 05:57:00,
2013-06-30 02:02:00,63.5,62.6,29.49,East,90,2.0,2.0,97,0.00,,,0.00,meteohub,2013-06-30 06:02:00,
2013-06-30 02:07:00,63.3,62.4,29.49,South,180,1.0,2.0,97,0.00,,,0.00,meteohub,2013-06-30 06:07:00,
2013-06-30 02:12:00,63.3,62.4,29.49,SE,135,0.0,2.0,97,0.00,,,0.00,meteohub,2013-06-30 06:12:00,
2013-06-30 02:17:00,63.3,62.4,29.49,West,270,1.0,2.0,97,0.00,,,0.00,meteohub,2013-06-30 06:17:00,
2013-06-30 02:22:00,63.3,62.4,29.49,North,0,1.0,2.0,97,0.00,,,0.00,meteohub,2013-06-30 06:22:00,
2013-06-30 02:27:00,63.5,62.6,29.49,NW,315,2.0,2.0,97,0.00,,,0.00,meteohub,2013-06-30 06:27:00,
2013-06-30 02:32:00,63.5,62.6,29.48,South,180,2.0,2.0,97,0.00,,,0.00,meteohub,2013-06-30 06:32:00,
2013-06-30 02:37:00,63.5,62.6,29.48,West,270,2.0,2.0,97,0.00,,,0.00,meteohub,2013-06-30 06:37:00,
2013-06-30 02:42:00,63.5,62.6,29.49,South,180,2.0,2.0,97,0.00,,,0.00,meteohub,2013-06-30 06:42:00,
2013-06-30 02:47:00,63.7,62.8,29.49,East,90,2.0,2.0,97,0.00,,,0.00,meteohub,2013-06-30 06:47:00,
2013-06-30 02:53:00,63.7,62.8,29.49,West,270,2.0,2.0,97,0.00,,,0.00,meteohub,2013-06-30 06:53:00,
2013-06-30 02:59:00,63.7,62.8,29.49,NE,45,1.0,2.0,97,0.00,,,0.00,meteohub,2013-06-30 06:59:00,
2013-06-30 03:05:00,63.9,63.0,29.49,NE,45,4.0,4.0,97,0.00,,,0.00,meteohub,2013-06-30 07:05:00,
2013-06-30 03:11:00,63.9,63.0,29.49,West,270,2.0,4.0,97,0.00,,,0.00,meteohub,2013-06-30 07:11:00,
2013-06-30 03:17:00,63.9,63.0,29.49,SW,225,0.0,4.0,97,0.00,,,0.00,meteohub,2013-06-30 07:17:00,
2013-06-30 03:22:00,63.9,63.0,29.49,West,270,3.0,4.0,97,0.00,,,0.00,meteohub,2013-06-30 07:22:00,
2013-06-30 03:27:00,63.9,63.0,29.49,West,270,1.0,4.0,97,0.00,,,0.00,meteohub,2013-06-30 07:27:00,
2013-06-30 03:32:00,63.9,63.0,29.49,NW,315,1.0,4.0,97,0.00,,,0.00,meteohub,2013-06-30 07:32:00,
2013-06-30 03:37:00,63.9,63.0,29.49,NE,45,2.0,4.0,97,0.00,,,0.00,meteohub,2013-06-30 07:37:00,
2013-06-30 03:42:00,63.9,63.0,29.49,West,270,0.0,2.0,97,0.00,,,0.00,meteohub,2013-06-30 07:42:00,
2013-06-30 03:47:00,63.9,63.0,29.49,NW,315,1.0,2.0,97,0.00,,,0.00,meteohub,2013-06-30 07:47:00,
2013-06-30 03:52:00,63.9,63.0,29.49,West,270,0.0,3.0,97,0.00,,,0.00,meteohub,2013-06-30 07:52:00,
2013-06-30 03:57:00,63.9,63.0,29.49,West,270,2.0,3.0,97,0.00,,,0.00,meteohub,2013-06-30 07:57:00,
2013-06-30 04:02:00,63.9,63.0,29.49,West,270,0.0,2.0,97,0.00,,,0.00,meteohub,2013-06-30 08:02:00,
2013-06-30 04:07:00,63.7,62.8,29.49,East,90,0.0,2.0,97,0.00,,,0.00,meteohub,2013-06-30 08:07:00,
2013-06-30 04:12:00,63.7,62.8,29.50,North,0,0.0,2.0,97,0.00,,,0.00,meteohub,2013-06-30 08:12:00,
2013-06-30 04:17:00,63.7,62.8,29.50,NW,315,1.0,2.0,97,0.00,,,0.00,meteohub,2013-06-30 08:17:00,
2013-06-30 04:22:00,63.7,62.8,29.50,East,90,0.0,2.0,97,0.00,,,0.00,meteohub,2013-06-30 08:22:00,
2013-06-30 04:27:00,63.7,62.8,29.50,East,90,0.0,1.0,97,0.00,,,0.00,meteohub,2013-06-30 08:27:00,
2013-06-30 04:32:00,63.5,62.6,29.50,East,90,0.0,1.0,97,0.00,,,0.00,meteohub,2013-06-30 08:32:00,
2013-06-30 04:37:00,63.5,62.6,29.51,East,90,1.0,0.0,97,0.00,,,0.00,meteohub,2013-06-30 08:37:00,
2013-06-30 04:42:00,63.5,62.6,29.50,East,90,0.0,1.0,97,0.00,,,0.00,meteohub,2013-06-30 08:42:00,
2013-06-30 04:44:00,63.3,62.4,29.51,East,90,1.0,1.0,97,0.00,,,0.00,meteohub,2013-06-30 08:44:00,
2013-06-30 04:50:00,63.3,62.4,29.51,SE,135,1.0,1.0,97,0.00,,,0.00,meteohub,2013-06-30 08:50:00,
2013-06-30 04:56:00,63.3,62.4,29.51,East,90,0.0,2.0,97,0.00,,,0.00,meteohub,2013-06-30 08:56:00,
2013-06-30 05:02:00,63.3,62.4,29.51,East,90,1.0,2.0,97,0.00,,,0.00,meteohub,2013-06-30 09:02:00,
2013-06-30 05:07:00,63.3,62.4,29.51,SE,135,2.0,2.0,97,0.00,,,0.00,meteohub,2013-06-30 09:07:00,
2013-06-30 05:12:00,63.3,62.4,29.51,NW,315,0.0,2.0,97,0.00,,,0.00,meteohub,2013-06-30 09:12:00,
2013-06-30 05:18:00,63.3,62.4,29.51,East,90,1.0,2.0,97,0.00,,,0.00,meteohub,2013-06-30 09:18:00,
2013-06-30 05:24:00,63.3,62.4,29.52,East,90,0.0,2.0,97,0.00,,,0.00,meteohub,2013-06-30 09:24:00,
2013-06-30 05:30:00,63.5,62.6,29.52,East,90,0.0,3.0,97,0.00,,,0.00,meteohub,2013-06-30 09:30:00,
2013-06-30 05:36:00,63.5,62.6,29.53,NW,315,1.0,3.0,97,0.00,,,0.00,meteohub,2013-06-30 09:36:00,
2013-06-30 05:42:00,63.7,62.8,29.53,NW,315,0.0,2.0,97,0.00,,,0.00,meteohub,2013-06-30 09:42:00,
2013-06-30 05:47:00,63.7,62.8,29.53,NW,315,0.0,2.0,97,0.00,,,0.00,meteohub,2013-06-30 09:47:00,
2013-06-30 05:52:00,63.7,62.8,29.52,NW,315,0.0,2.0,97,0.00,,,0.00,meteohub,2013-06-30 09:52:00,
2013-06-30 05:57:00,63.7,62.8,29.53,North,0,0.0,1.0,97,0.00,,,0.00,meteohub,2013-06-30 09:57:00,
2013-06-30 06:02:00,63.7,62.8,29.53,NE,45,0.0,2.0,97,0.00,,,0.00,meteohub,2013-06-30 10:02:00,
2013-06-30 06:07:00,63.7,62.8,29.53,NW,315,1.0,2.0,97,0.00,,,0.00,meteohub,2013-06-30 10:07:00,
2013-06-30 06:12:00,63.9,63.0,29.54,West,270,1.0,2.0,97,0.00,,,0.00,meteohub,2013-06-30 10:12:00,
2013-06-30 06:17:00,63.9,63.0,29.54,NW,315,2.0,2.0,97,0.00,,,0.00,meteohub,2013-06-30 10:17:00,
2013-06-30 06:22:00,63.9,63.0,29.54,NW,315,1.0,2.0,97,0.00,,,0.00,meteohub,2013-06-30 10:22:00,
2013-06-30 06:27:00,63.7,62.8,29.54,NW,315,1.0,2.0,97,0.00,,,0.00,meteohub,2013-06-30 10:27:00,
2013-06-30 06:32:00,63.7,62.8,29.54,NE,45,1.0,2.0,97,0.00,,,0.00,meteohub,2013-06-30 10:32:00,
2013-06-30 06:37:00,63.5,62.6,29.54,East,90,0.0,2.0,97,0.00,,,0.00,meteohub,2013-06-30 10:37:00,
2013-06-30 06:42:00,63.7,62.8,29.54,East,90,0.0,2.0,97,0.00,,,0.00,meteohub,2013-06-30 10:42:00,
2013-06-30 06:47:00,63.7,62.8,29.54,East,90,0.0,2.0,97,0.00,,,0.00,meteohub,2013-06-30 10:47:00,
2013-06-30 06:52:00,63.7,62.8,29.54,NE,45,1.0,2.0,97,0.00,,,0.00,meteohub,2013-06-30 10:52:00,
2013-06-30 06:57:00,63.9,63.0,29.54,East,90,0.0,2.0,97,0.00,,,0.00,meteohub,2013-06-30 10:57:00,
2013-06-30 07:02:00,63.7,62.8,29.54,East,90,0.0,2.0,97,0.00,,,0.00,meteohub,2013-06-30 11:02:00,
2013-06-30 07:07:00,63.9,63.0,29.54,East,90,0.0,1.0,97,0.00,,,0.00,meteohub,2013-06-30 11:07:00,
2013-06-30 07:12:00,64.0,63.1,29.54,East,90,0.0,1.0,97,0.00,,,0.00,meteohub,2013-06-30 11:12:00,
2013-06-30 07:17:00,64.2,63.3,29.54,NW,315,1.0,1.0,97,0.00,,,0.00,meteohub,2013-06-30 11:17:00,
2013-06-30 07:22:00,64.2,63.3,29.55,NW,315,0.0,1.0,97,0.00,,,0.00,meteohub,2013-06-30 11:22:00,
2013-06-30 07:27:00,64.2,63.3,29.55,SE,135,1.0,1.0,97,0.00,,,0.00,meteohub,2013-06-30 11:27:00,
2013-06-30 07:32:00,64.2,63.3,29.56,North,0,0.0,1.0,97,0.00,,,0.00,meteohub,2013-06-30 11:32:00,
2013-06-30 07:37:00,64.4,63.9,29.56,South,180,0.0,1.0,98,0.00,,,0.00,meteohub,2013-06-30 11:37:00,
2013-06-30 07:42:00,64.6,64.0,29.56,SW,225,0.0,1.0,98,0.00,,,0.00,meteohub,2013-06-30 11:42:00,
2013-06-30 07:47:00,64.6,64.0,29.56,SW,225,0.0,1.0,98,0.00,,,0.00,meteohub,2013-06-30 11:47:00,
2013-06-30 07:52:00,64.6,64.0,29.57,NE,45,0.0,1.0,98,0.00,,,0.00,meteohub,2013-06-30 11:52:00,
2013-06-30 07:57:00,64.6,64.0,29.57,NE,45,0.0,1.0,98,0.00,,,0.00,meteohub,2013-06-30 11:57:00,
2013-06-30 08:04:00,64.6,64.0,29.57,SE,135,1.0,1.0,98,0.00,,,0.00,meteohub,2013-06-30 12:04:00,
2013-06-30 08:10:00,64.8,64.2,29.57,South,180,0.0,1.0,98,0.00,,,0.00,meteohub,2013-06-30 12:10:00,
2013-06-30 08:16:00,64.9,64.4,29.57,East,90,1.0,1.0,98,0.00,,,0.00,meteohub,2013-06-30 12:16:00,
2013-06-30 08:22:00,64.9,64.4,29.57,NW,315,1.0,2.0,98,0.00,,,0.00,meteohub,2013-06-30 12:22:00,
2013-06-30 08:28:00,64.9,64.4,29.57,SE,135,0.0,2.0,98,0.00,,,0.00,meteohub,2013-06-30 12:28:00,
2013-06-30 08:34:00,65.1,64.8,29.57,West,270,0.0,2.0,99,0.00,,,0.00,meteohub,2013-06-30 12:34:00,
2013-06-30 08:40:00,65.5,65.1,29.57,NW,315,0.0,1.0,99,0.00,,,0.00,meteohub,2013-06-30 12:40:00,
2013-06-30 08:46:00,65.8,65.5,29.58,NW,315,2.0,2.0,99,0.00,,,0.00,meteohub,2013-06-30 12:46:00,
2013-06-30 08:52:00,66.0,65.7,29.58,West,270,0.0,2.0,99,0.00,,,0.00,meteohub,2013-06-30 12:52:00,
2013-06-30 08:57:00,66.0,65.7,29.58,NW,315,2.0,2.0,99,0.00,,,0.00,meteohub,2013-06-30 12:57:00,
2013-06-30 09:02:00,66.0,65.7,29.58,NW,315,3.0,3.0,99,0.00,,,0.00,meteohub,2013-06-30 13:02:00,
2013-06-30 09:07:00,66.0,65.7,29.58,NW,315,1.0,3.0,99,0.00,,,0.00,meteohub,2013-06-30 13:07:00,
2013-06-30 09:12:00,66.2,65.7,29.58,North,0,1.0,3.0,98,0.00,,,0.00,meteohub,2013-06-30 13:12:00,
2013-06-30 09:17:00,66.4,65.8,29.59,NW,315,2.0,3.0,98,0.00,,,0.00,meteohub,2013-06-30 13:17:00,
2013-06-30 09:22:00,66.4,65.8,29.59,NW,315,1.0,2.0,98,0.00,,,0.00,meteohub,2013-06-30 13:22:00,
2013-06-30 09:28:00,66.4,65.8,29.59,NW,315,1.0,2.0,98,0.00,,,0.00,meteohub,2013-06-30 13:28:00,
2013-06-30 09:34:00,66.6,66.0,29.60,NW,315,0.0,2.0,98,0.00,,,0.00,meteohub,2013-06-30 13:34:00,
2013-06-30 09:40:00,66.7,66.2,29.59,SW,225,1.0,1.0,98,0.00,,,0.00,meteohub,2013-06-30 13:40:00,
2013-06-30 09:46:00,66.9,66.4,29.59,SW,225,0.0,1.0,98,0.00,,,0.00,meteohub,2013-06-30 13:46:00,
2013-06-30 09:52:00,67.3,66.7,29.59,NW,315,0.0,1.0,98,0.00,,,0.00,meteohub,2013-06-30 13:52:00,
2013-06-30 09:57:00,67.6,67.1,29.59,SE,135,0.0,1.0,98,0.00,,,0.00,meteohub,2013-06-30 13:57:00,
2013-06-30 10:02:00,67.6,67.1,29.59,West,270,1.0,1.0,98,0.00,,,0.00,meteohub,2013-06-30 14:02:00,
2013-06-30 10:07:00,68.0,67.1,29.60,North,0,1.0,2.0,97,0.00,,,0.00,meteohub,2013-06-30 14:07:00,
2013-06-30 10:13:00,68.2,67.3,29.59,NW,315,0.0,2.0,97,0.00,,,0.00,meteohub,2013-06-30 14:13:00,
2013-06-30 10:19:00,68.0,66.7,29.60,NW,315,2.0,2.0,96,0.00,,,0.00,meteohub,2013-06-30 14:19:00,
2013-06-30 10:25:00,67.8,66.9,29.60,NW,315,2.0,2.0,97,0.00,,,0.00,meteohub,2013-06-30 14:25:00,
2013-06-30 10:31:00,67.8,66.9,29.60,NW,315,1.0,2.0,97,0.00,,,0.00,meteohub,2013-06-30 14:31:00,
2013-06-30 10:37:00,67.8,66.9,29.60,South,180,0.0,2.0,97,0.00,,,0.00,meteohub,2013-06-30 14:37:00,
2013-06-30 10:42:00,68.0,66.7,29.60,NW,315,0.0,2.0,96,0.00,,,0.00,meteohub,2013-06-30 14:42:00,
2013-06-30 10:47:00,68.2,66.9,29.60,NW,315,0.0,2.0,96,0.00,,,0.00,meteohub,2013-06-30 14:47:00,
2013-06-30 10:52:00,68.4,66.9,29.61,NW,315,2.0,2.0,95,0.00,,,0.00,meteohub,2013-06-30 14:52:00,
2013-06-30 10:57:00,68.2,66.7,29.60,West,270,0.0,2.0,95,0.00,,,0.00,meteohub,2013-06-30 14:57:00,
2013-06-30 11:02:00,68.4,66.9,29.60,West,270,0.0,2.0,95,0.00,,,0.00,meteohub,2013-06-30 15:02:00,
2013-06-30 11:07:00,68.5,67.1,29.60,West,270,0.0,2.0,95,0.00,,,0.00,meteohub,2013-06-30 15:07:00,
2013-06-30 11:12:00,68.5,66.7,29.60,West,270,0.0,1.0,94,0.00,,,0.00,meteohub,2013-06-30 15:12:00,
2013-06-30 11:17:00,68.7,66.9,29.60,West,270,0.0,0.0,94,0.00,,,0.00,meteohub,2013-06-30 15:17:00,
2013-06-30 11:22:00,69.1,67.3,29.60,West,270,0.0,0.0,94,0.00,,,0.00,meteohub,2013-06-30 15:22:00,
2013-06-30 11:27:00,69.1,67.3,29.60,West,270,0.0,1.0,94,0.00,,,0.00,meteohub,2013-06-30 15:27:00,
2013-06-30 11:32:00,69.4,67.3,29.60,West,270,0.0,1.0,93,0.00,,,0.00,meteohub,2013-06-30 15:32:00,
2013-06-30 11:37:00,69.6,67.5,29.60,NW,315,0.0,1.0,93,0.00,,,0.00,meteohub,2013-06-30 15:37:00,
2013-06-30 11:42:00,70.0,67.5,29.61,NW,315,1.0,1.0,92,0.00,,,0.00,meteohub,2013-06-30 15:42:00,
2013-06-30 11:47:00,70.3,67.6,29.61,NW,315,0.0,2.0,91,0.00,,,0.00,meteohub,2013-06-30 15:47:00,
2013-06-30 11:52:00,70.9,67.8,29.61,NW,315,0.0,2.0,90,0.00,,,0.00,meteohub,2013-06-30 15:52:00,
2013-06-30 11:57:00,71.2,68.2,29.61,SW,225,0.0,2.0,90,0.00,,,0.00,meteohub,2013-06-30 15:57:00,
2013-06-30 12:02:00,71.6,67.8,29.61,North,0,0.0,2.0,88,0.00,,,0.00,meteohub,2013-06-30 16:02:00,
2013-06-30 12:07:00,72.1,68.4,29.61,SW,225,1.0,2.0,88,0.00,,,0.00,meteohub,2013-06-30 16:07:00,
2013-06-30 12:12:00,72.1,68.0,29.61,West,270,0.0,2.0,87,0.00,,,0.00,meteohub,2013-06-30 16:12:00,
2013-06-30 12:17:00,72.5,68.0,29.61,NW,315,0.0,2.0,86,0.00,,,0.00,meteohub,2013-06-30 16:17:00,
2013-06-30 12:22:00,72.7,68.2,29.60,South,180,0.0,2.0,86,0.00,,,0.00,meteohub,2013-06-30 16:22:00,
2013-06-30 12:27:00,72.9,68.4,29.60,NW,315,1.0,2.0,86,0.00,,,0.00,meteohub,2013-06-30 16:27:00,
2013-06-30 12:32:00,73.0,68.5,29.60,NW,315,2.0,2.0,86,0.00,,,0.00,meteohub,2013-06-30 16:32:00,
2013-06-30 12:37:00,73.0,68.2,29.61,NW,315,0.0,2.0,85,0.00,,,0.00,meteohub,2013-06-30 16:37:00,
2013-06-30 12:42:00,73.2,68.4,29.61,NW,315,2.0,2.0,85,0.00,,,0.00,meteohub,2013-06-30 16:42:00,
2013-06-30 12:48:00,73.6,69.1,29.60,West,270,1.0,2.0,86,0.00,,,0.00,meteohub,2013-06-30 16:48:00,
2013-06-30 12:54:00,73.9,69.8,29.61,NW,315,0.0,2.0,87,0.00,,,0.00,meteohub,2013-06-30 16:54:00,
2013-06-30 13:00:00,74.8,70.3,29.61,NW,315,0.0,2.0,86,0.00,,,0.00,meteohub,2013-06-30 17:00:00,
2013-06-30 13:06:00,76.1,70.9,29.61,South,180,0.0,2.0,84,0.00,,,0.00,meteohub,2013-06-30 17:06:00,
2013-06-30 13:12:00,76.3,71.1,29.61,SE,135,2.0,2.0,84,0.00,,,0.00,meteohub,2013-06-30 17:12:00,
2013-06-30 13:17:00,75.9,70.7,29.61,SE,135,1.0,2.0,84,0.00,,,0.00,meteohub,2013-06-30 17:17:00,
2013-06-30 13:22:00,76.3,71.1,29.61,West,270,0.0,2.0,84,0.00,,,0.00,meteohub,2013-06-30 17:22:00,
2013-06-30 13:27:00,76.8,71.2,29.61,SW,225,0.0,2.0,83,0.00,,,0.00,meteohub,2013-06-30 17:27:00,
2013-06-30 13:32:00,76.5,70.5,29.61,South,180,1.0,2.0,82,0.00,,,0.00,meteohub,2013-06-30 17:32:00,
2013-06-30 13:37:00,76.3,70.7,29.61,West,270,0.0,2.0,83,0.00,,,0.00,meteohub,2013-06-30 17:37:00,
2013-06-30 13:42:00,76.3,71.1,29.61,SE,135,2.0,2.0,84,0.00,,,0.00,meteohub,2013-06-30 17:42:00,
2013-06-30 13:48:00,76.5,71.2,29.61,SE,135,2.0,2.0,84,0.00,,,0.00,meteohub,2013-06-30 17:48:00,
2013-06-30 13:55:00,76.3,71.1,29.61,South,180,0.0,2.0,84,0.00,,,0.00,meteohub,2013-06-30 17:55:00,
2013-06-30 14:01:00,76.8,71.6,29.62,South,180,1.0,2.0,84,0.00,,,0.00,meteohub,2013-06-30 18:01:00,
2013-06-30 14:07:00,77.0,71.1,29.62,South,180,2.0,2.0,82,0.00,,,0.00,meteohub,2013-06-30 18:07:00,
2013-06-30 14:12:00,77.0,71.1,29.62,SE,135,2.0,2.0,82,0.00,,,0.00,meteohub,2013-06-30 18:12:00,
2013-06-30 14:17:00,77.2,70.9,29.62,South,180,1.0,2.0,81,0.00,,,0.00,meteohub,2013-06-30 18:17:00,
2013-06-30 14:22:00,77.2,70.9,29.62,SE,135,1.0,2.0,81,0.00,,,0.00,meteohub,2013-06-30 18:22:00,
2013-06-30 14:27:00,77.0,70.7,29.61,SW,225,1.0,2.0,81,0.00,,,0.00,meteohub,2013-06-30 18:27:00,
2013-06-30 14:32:00,77.7,71.1,29.62,South,180,1.0,2.0,80,0.00,,,0.00,meteohub,2013-06-30 18:32:00,
2013-06-30 14:37:00,77.7,70.7,29.62,SE,135,0.0,2.0,79,0.00,,,0.00,meteohub,2013-06-30 18:37:00,
2013-06-30 14:42:00,77.9,70.9,29.62,SW,225,0.0,2.0,79,0.00,,,0.00,meteohub,2013-06-30 18:42:00,
2013-06-30 14:47:00,78.1,70.7,29.62,NE,45,2.0,2.0,78,0.00,,,0.00,meteohub,2013-06-30 18:47:00,
2013-06-30 14:53:00,77.5,68.9,29.62,NW,315,1.0,4.0,75,0.00,,,0.00,meteohub,2013-06-30 18:53:00,
2013-06-30 14:59:00,77.0,68.0,29.62,SW,225,2.0,4.0,74,0.00,,,0.00,meteohub,2013-06-30 18:59:00,
2013-06-30 15:05:00,75.9,67.8,29.62,SW,225,1.0,4.0,76,0.00,,,0.00,meteohub,2013-06-30 19:05:00,
2013-06-30 15:11:00,75.7,68.0,29.62,West,270,2.0,3.0,77,0.00,,,0.00,meteohub,2013-06-30 19:11:00,
2013-06-30 15:17:00,76.1,68.4,29.63,NW,315,1.0,3.0,77,0.00,,,0.00,meteohub,2013-06-30 19:17:00,
2013-06-30 15:23:00,75.6,67.8,29.63,North,0,2.0,2.0,77,0.00,,,0.00,meteohub,2013-06-30 19:23:00,
2013-06-30 15:29:00,74.8,67.5,29.63,NW,315,3.0,3.0,78,0.00,,,0.00,meteohub,2013-06-30 19:29:00,
2013-06-30 15:35:00,74.5,67.5,29.62,West,270,1.0,3.0,79,0.00,,,0.00,meteohub,2013-06-30 19:35:00,
2013-06-30 15:41:00,74.5,67.8,29.63,NW,315,2.0,3.0,80,0.00,,,0.00,meteohub,2013-06-30 19:41:00,
2013-06-30 15:47:00,74.5,67.5,29.62,NE,45,1.0,3.0,79,0.00,,,0.00,meteohub,2013-06-30 19:47:00,
2013-06-30 15:52:00,74.3,67.3,29.63,South,180,1.0,2.0,79,0.00,,,0.00,meteohub,2013-06-30 19:52:00,
2013-06-30 15:57:00,74.1,67.6,29.63,SW,225,0.0,2.0,80,0.00,,,0.00,meteohub,2013-06-30 19:57:00,
2013-06-30 16:02:00,74.1,67.6,29.63,South,180,0.0,2.0,80,0.00,,,0.00,meteohub,2013-06-30 20:02:00,
2013-06-30 16:07:00,73.6,67.5,29.63,West,270,2.0,2.0,81,0.00,,,0.00,meteohub,2013-06-30 20:07:00,
2013-06-30 16:12:00,73.8,67.6,29.63,SW,225,1.0,2.0,81,0.00,,,0.00,meteohub,2013-06-30 20:12:00,
2013-06-30 16:17:00,73.6,67.5,29.63,NW,315,1.0,2.0,81,0.00,,,0.00,meteohub,2013-06-30 20:17:00,
2013-06-30 16:22:00,73.4,67.3,29.63,NW,315,1.0,2.0,81,0.00,,,0.00,meteohub,2013-06-30 20:22:00,
2013-06-30 16:28:00,73.4,67.6,29.64,NW,315,1.0,2.0,82,0.00,,,0.00,meteohub,2013-06-30 20:28:00,
2013-06-30 16:34:00,73.4,67.6,29.63,West,270,1.0,2.0,82,0.00,,,0.00,meteohub,2013-06-30 20:34:00,
2013-06-30 16:40:00,73.2,67.5,29.64,NW,315,2.0,2.0,82,0.00,,,0.00,meteohub,2013-06-30 20:40:00,
2013-06-30 16:46:00,73.0,67.3,29.64,West,270,2.0,2.0,82,0.00,,,0.00,meteohub,2013-06-30 20:46:00,
2013-06-30 16:52:00,72.7,66.9,29.64,NW,315,2.0,3.0,82,0.00,,,0.00,meteohub,2013-06-30 20:52:00,
2013-06-30 16:57:00,72.3,66.6,29.64,SW,225,0.0,3.0,82,0.00,,,0.00,meteohub,2013-06-30 20:57:00,
2013-06-30 17:02:00,72.3,66.9,29.64,NW,315,1.0,3.0,83,0.00,,,0.00,meteohub,2013-06-30 21:02:00,
2013-06-30 17:07:00,72.3,66.9,29.64,SSW,203,1.0,2.0,83,0.00,,,0.00,meteohub,2013-06-30 21:07:00,
2013-06-30 17:12:00,72.3,66.9,29.64,NW,315,1.0,2.0,83,0.00,,,0.00,meteohub,2013-06-30 21:12:00,
2013-06-30 17:17:00,72.1,66.7,29.64,West,270,0.0,2.0,83,0.00,,,0.00,meteohub,2013-06-30 21:17:00,
2013-06-30 17:22:00,72.0,66.6,29.64,West,270,0.0,2.0,83,0.00,,,0.00,meteohub,2013-06-30 21:22:00,
2013-06-30 17:28:00,72.1,66.7,29.64,North,0,1.0,2.0,83,0.00,,,0.00,meteohub,2013-06-30 21:28:00,
2013-06-30 17:34:00,72.1,66.7,29.64,East,90,1.0,1.0,83,0.00,,,0.00,meteohub,2013-06-30 21:34:00,
2013-06-30 17:41:00,71.6,66.6,29.65,South,180,0.0,2.0,84,0.00,,,0.00,meteohub,2013-06-30 21:41:00,
2013-06-30 17:47:00,71.4,66.7,29.65,South,180,1.0,2.0,85,0.00,,,0.00,meteohub,2013-06-30 21:47:00,
2013-06-30 17:52:00,71.1,66.7,29.65,East,90,2.0,2.0,86,0.00,,,0.00,meteohub,2013-06-30 21:52:00,
2013-06-30 17:57:00,71.1,66.7,29.65,East,90,1.0,2.0,86,0.00,,,0.00,meteohub,2013-06-30 21:57:00,
2013-06-30 18:02:00,71.1,66.9,29.65,East,90,1.0,2.0,87,0.00,,,0.00,meteohub,2013-06-30 22:02:00,
2013-06-30 18:07:00,71.1,66.9,29.65,North,0,0.0,2.0,87,0.00,,,0.00,meteohub,2013-06-30 22:07:00,
2013-06-30 18:12:00,71.1,66.9,29.65,South,180,1.0,2.0,87,0.00,,,0.00,meteohub,2013-06-30 22:12:00,
2013-06-30 18:17:00,70.9,66.7,29.66,South,180,0.0,2.0,87,0.00,,,0.00,meteohub,2013-06-30 22:17:00,
2013-06-30 18:22:00,70.9,66.7,29.66,South,180,0.0,2.0,87,0.00,,,0.00,meteohub,2013-06-30 22:22:00,
2013-06-30 18:27:00,70.7,66.9,29.66,South,180,2.0,2.0,88,0.00,,,0.00,meteohub,2013-06-30 22:27:00,
2013-06-30 18:33:00,70.7,66.9,29.66,SE,135,0.0,2.0,88,0.00,,,0.00,meteohub,2013-06-30 22:33:00,
2013-06-30 18:39:00,70.7,66.9,29.67,SE,135,1.0,2.0,88,0.00,,,0.00,meteohub,2013-06-30 22:39:00,
2013-06-30 18:45:00,70.7,66.9,29.67,SE,135,2.0,2.0,88,0.00,,,0.00,meteohub,2013-06-30 22:45:00,
2013-06-30 18:51:00,70.7,66.9,29.67,South,180,2.0,2.0,88,0.00,,,0.00,meteohub,2013-06-30 22:51:00,
2013-06-30 18:57:00,70.9,67.1,29.68,East,90,1.0,2.0,88,0.00,,,0.00,meteohub,2013-06-30 22:57:00,
2013-06-30 19:02:00,71.1,67.3,29.68,SE,135,2.0,2.0,88,0.00,,,0.00,meteohub,2013-06-30 23:02:00,
2013-06-30 19:07:00,71.1,66.9,29.68,SE,135,0.0,2.0,87,0.00,,,0.00,meteohub,2013-06-30 23:07:00,
2013-06-30 19:14:00,70.7,66.6,29.68,East,90,0.0,2.0,87,0.00,,,0.00,meteohub,2013-06-30 23:14:00,
2013-06-30 19:20:00,70.3,66.2,29.68,SE,135,0.0,2.0,87,0.00,,,0.00,meteohub,2013-06-30 23:20:00,
2013-06-30 19:26:00,69.6,65.8,29.68,SE,135,1.0,2.0,88,0.00,,,0.00,meteohub,2013-06-30 23:26:00,
2013-06-30 19:32:00,69.1,65.3,29.67,SE,135,0.0,2.0,88,0.00,,,0.00,meteohub,2013-06-30 23:32:00,
2013-06-30 19:37:00,68.9,65.1,29.68,SE,135,0.0,2.0,88,0.00,,,0.00,meteohub,2013-06-30 23:37:00,
2013-06-30 19:42:00,68.5,65.1,29.68,SE,135,0.0,2.0,89,0.00,,,0.00,meteohub,2013-06-30 23:42:00,
2013-06-30 19:47:00,68.4,64.9,29.68,SE,135,0.0,1.0,89,0.00,,,0.00,meteohub,2013-06-30 23:47:00,
2013-06-30 19:52:00,68.2,65.1,29.68,SE,135,0.0,2.0,90,0.00,,,0.00,meteohub,2013-06-30 23:52:00,
2013-06-30 19:57:00,68.0,64.9,29.68,South,180,1.0,2.0,90,0.00,,,0.00,meteohub,2013-06-30 23:57:00,
2013-06-30 20:02:00,67.8,65.1,29.68,South,180,2.0,2.0,91,0.00,,,0.00,meteohub,2013-07-01 00:02:00,
2013-06-30 20:07:00,67.6,64.9,29.68,SE,135,2.0,2.0,91,0.00,,,0.00,meteohub,2013-07-01 00:07:00,
2013-06-30 20:12:00,67.6,65.3,29.68,South,180,1.0,2.0,92,0.00,,,0.00,meteohub,2013-07-01 00:12:00,
2013-06-30 20:17:00,67.6,65.3,29.68,East,90,0.0,2.0,92,0.00,,,0.00,meteohub,2013-07-01 00:17:00,
2013-06-30 20:22:00,67.6,65.3,29.68,West,270,1.0,2.0,92,0.00,,,0.00,meteohub,2013-07-01 00:22:00,
2013-06-30 20:27:00,67.6,65.3,29.68,North,0,1.0,2.0,92,0.00,,,0.00,meteohub,2013-07-01 00:27:00,
2013-06-30 20:32:00,67.6,65.5,29.68,West,270,1.0,2.0,93,0.00,,,0.00,meteohub,2013-07-01 00:32:00,
2013-06-30 20:37:00,67.6,65.5,29.68,South,180,0.0,1.0,93,0.00,,,0.00,meteohub,2013-07-01 00:37:00,
2013-06-30 20:42:00,67.3,65.1,29.69,West,270,0.0,1.0,93,0.00,,,0.00,meteohub,2013-07-01 00:42:00,
2013-06-30 20:47:00,67.3,65.1,29.69,North,0,0.0,1.0,93,0.00,,,0.00,meteohub,2013-07-01 00:47:00,
2013-06-30 20:52:00,66.9,64.8,29.69,SE,135,0.0,1.0,93,0.00,,,0.00,meteohub,2013-07-01 00:52:00,
2013-06-30 20:57:00,66.9,64.8,29.70,NE,45,1.0,1.0,93,0.00,,,0.00,meteohub,2013-07-01 00:57:00,
2013-06-30 21:02:00,66.7,64.6,29.70,NW,315,0.0,2.0,93,0.00,,,0.00,meteohub,2013-07-01 01:02:00,
2013-06-30 21:07:00,66.9,64.8,29.70,South,180,1.0,2.0,93,0.00,,,0.00,meteohub,2013-07-01 01:07:00,
2013-06-30 21:12:00,66.7,64.9,29.70,South,180,0.0,2.0,94,0.00,,,0.00,meteohub,2013-07-01 01:12:00,
2013-06-30 21:17:00,66.7,64.9,29.69,SE,135,0.0,1.0,94,0.00,,,0.00,meteohub,2013-07-01 01:17:00,
2013-06-30 21:23:00,66.6,64.8,29.70,SE,135,0.0,1.0,94,0.00,,,0.00,meteohub,2013-07-01 01:23:00,
2013-06-30 21:29:00,66.7,64.9,29.70,SE,135,0.0,0.0,94,0.00,,,0.00,meteohub,2013-07-01 01:29:00,
2013-06-30 21:35:00,66.7,64.9,29.70,West,270,0.0,1.0,94,0.00,,,0.00,meteohub,2013-07-01 01:35:00,
2013-06-30 21:41:00,66.7,64.9,29.70,West,270,1.0,1.0,94,0.00,,,0.00,meteohub,2013-07-01 01:41:00,
2013-06-30 21:47:00,66.7,64.9,29.70,West,270,0.0,1.0,94,0.00,,,0.00,meteohub,2013-07-01 01:47:00,
2013-06-30 21:52:00,66.7,64.9,29.70,South,180,2.0,2.0,94,0.00,,,0.00,meteohub,2013-07-01 01:52:00,
2013-06-30 21:57:00,66.6,64.8,29.70,SW,225,1.0,2.0,94,0.00,,,0.00,meteohub,2013-07-01 01:57:00,
2013-06-30 22:02:00,66.7,64.9,29.70,West,270,0.0,2.0,94,0.00,,,0.00,meteohub,2013-07-01 02:02:00,
2013-06-30 22:07:00,66.9,65.1,29.70,North,0,2.0,2.0,94,0.00,,,0.00,meteohub,2013-07-01 02:07:00,
2013-06-30 22:12:00,66.9,65.1,29.70,NW,315,2.0,2.0,94,0.00,,,0.00,meteohub,2013-07-01 02:12:00,
2013-06-30 22:17:00,67.1,65.7,29.70,NW,315,1.0,2.0,95,0.00,,,0.00,meteohub,2013-07-01 02:17:00,
2013-06-30 22:22:00,66.9,65.5,29.71,NW,315,2.0,2.0,95,0.00,,,0.00,meteohub,2013-07-01 02:22:00,
2013-06-30 22:27:00,66.9,65.5,29.71,West,270,1.0,2.0,95,0.00,,,0.00,meteohub,2013-07-01 02:27:00,
2013-06-30 22:33:00,66.9,65.5,29.70,NW,315,1.0,3.0,95,0.00,,,0.00,meteohub,2013-07-01 02:33:00,
2013-06-30 22:39:00,66.7,65.3,29.71,West,270,1.0,3.0,95,0.00,,,0.00,meteohub,2013-07-01 02:39:00,
2013-06-30 22:45:00,66.7,65.3,29.71,NW,315,0.0,2.0,95,0.00,,,0.00,meteohub,2013-07-01 02:45:00,
2013-06-30 22:51:00,66.6,65.1,29.70,NW,315,2.0,2.0,95,0.00,,,0.00,meteohub,2013-07-01 02:51:00,
2013-06-30 22:57:00,66.6,65.1,29.70,East,90,2.0,2.0,95,0.00,,,0.00,meteohub,2013-07-01 02:57:00,
2013-06-30 23:02:00,66.4,64.9,29.70,East,90,0.0,2.0,95,0.00,,,0.00,meteohub,2013-07-01 03:02:00,
2013-06-30 23:07:00,66.4,64.9,29.70,East,90,0.0,2.0,95,0.00,,,0.00,meteohub,2013-07-01 03:07:00,
2013-06-30 23:12:00,66.2,64.8,29.70,SE,135,0.0,2.0,95,0.00,,,0.00,meteohub,2013-07-01 03:12:00,
2013-06-30 23:17:00,66.2,64.8,29.70,West,270,0.0,2.0,95,0.00,,,0.00,meteohub,2013-07-01 03:17:00,
2013-06-30 23:22:00,66.0,64.8,29.70,West,270,1.0,2.0,96,0.00,,,0.00,meteohub,2013-07-01 03:22:00,
2013-06-30 23:27:00,66.0,64.8,29.70,West,270,1.0,3.0,96,0.00,,,0.00,meteohub,2013-07-01 03:27:00,
2013-06-30 23:32:00,66.0,64.8,29.70,East,90,0.0,3.0,96,0.00,,,0.00,meteohub,2013-07-01 03:32:00,
2013-06-30 23:37:00,65.8,64.6,29.70,East,90,0.0,3.0,96,0.00,,,0.00,meteohub,2013-07-01 03:37:00,
2013-06-30 23:42:00,65.8,64.6,29.70,East,90,0.0,2.0,96,0.00,,,0.00,meteohub,2013-07-01 03:42:00,
2013-06-30 23:47:00,65.7,64.4,29.70,East,90,0.0,2.0,96,0.00,,,0.00,meteohub,2013-07-01 03:47:00,
2013-06-30 23:52:00,65.5,64.2,29.70,East,90,0.0,2.0,96,0.00,,,0.00,meteohub,2013-07-01 03:52:00,
2013-06-30 23:57:00,65.5,64.2,29.70,East,90,1.0,1.0,96,0.00,,,0.00,meteohub,2013-07-01 03:57:00,